Time;durP1;ratioP1;P1;durP2;ratioP2;P2;SDS_P1;SDS_P2;PMS_P1;PMS_P2;Temp;Humidity;BMP_temperature;BMP_pressure;BME280_temperature;BME280_humidity;BME280_pressure;Samples;Min_cycle;Max_cycle;Signal;HPM_P1;HPM_P2
2023/11/05 00:02:05;;;;;;;0.00;0.00;;;;;;;9.60;65.36;97603.56;15662145;28;20059;-49
2023/11/05 00:09:40;;;;;;;;;;;;;;;9.75;64.92;97584.69;15671768;28;20063;-46
2023/11/05 00:17:13;;;;;;;0.00;0.00;;;;;;;9.54;66.17;97586.75;15671320;28;20009;-54
2023/11/05 00:24:47;;;;;;;0.00;0.00;;;;;;;9.93;64.76;97584.00;15660388;28;20045;-57
2023/11/05 00:32:21;;;;;;;0.00;0.00;;;;;;;9.95;65.42;97583.69;15682538;28;20047;-53
2023/11/05 00:39:59;;;;;;;0.00;0.00;;;;;;;10.00;65.13;97559.53;15650035;28;20083;-56
2023/11/05 00:47:32;;;;;;;0.63;0.30;;;;;;;9.96;65.54;97582.59;15640150;28;20433;-47
2023/11/05 00:55:08;;;;;;;0.00;0.00;;;;;;;9.97;65.95;97558.19;15659650;28;20404;-54
2023/11/05 01:02:41;;;;;;;0.00;0.00;;;;;;;9.97;66.00;97563.56;15675811;22;20478;-52
2023/11/05 01:10:16;;;;;;;;;;;;;;;9.87;66.71;97560.19;15717734;28;20522;-49
2023/11/05 01:17:55;;;;;;;0.00;0.00;;;;;;;9.89;66.78;97548.13;15701666;28;20008;-50
2023/11/05 01:25:31;;;;;;;0.00;0.00;;;;;;;9.91;67.14;97553.97;15721910;28;20509;-53
2023/11/05 01:33:07;;;;;;;0.00;0.00;;;;;;;10.01;67.14;97547.72;15727129;28;20550;-54
2023/11/05 01:40:42;;;;;;;0.00;0.00;;;;;;;10.04;67.59;97549.84;15721658;28;20056;-49
2023/11/05 01:48:17;;;;;;;0.00;0.00;;;;;;;9.75;69.69;97549.88;15727131;28;20048;-52
2023/11/05 01:55:52;;;;;;;0.00;0.00;;;;;;;9.55;72.26;97536.66;15735288;28;20100;-56
2023/11/05 02:03:25;;;;;;;0.70;0.40;;;;;;;9.75;72.72;97541.03;15713294;28;20033;-49
2023/11/05 02:11:00;;;;;;;0.00;0.00;;;;;;;9.49;74.31;97545.84;15717087;28;20133;-53
2023/11/05 02:18:33;;;;;;;0.00;0.00;;;;;;;9.51;75.02;97551.69;15725794;28;20063;-48
2023/11/05 02:26:09;;;;;;;;;;;;;;;9.59;75.52;97551.09;15726907;28;20037;-55
2023/11/05 02:33:42;;;;;;;0.15;0.10;;;;;;;9.50;77.09;97548.22;15722750;28;19932;-51
2023/11/05 02:41:17;;;;;;;;;;;;;;;9.11;79.43;97541.03;15720410;28;20282;-51
2023/11/05 02:48:50;;;;;;;0.00;0.00;;;;;;;8.94;80.41;97528.03;15715117;28;20393;-52
2023/11/05 02:56:25;;;;;;;0.00;0.00;;;;;;;9.22;79.51;97539.09;15724937;28;20368;-53
2023/11/05 03:03:59;;;;;;;0.05;0.05;;;;;;;9.27;79.55;97520.31;15708262;28;20476;-51
2023/11/05 03:11:35;;;;;;;0.00;0.00;;;;;;;9.35;79.41;97516.22;15693490;28;20489;-50
2023/11/05 03:19:09;;;;;;;0.00;0.00;;;;;;;9.19;80.05;97508.34;15718397;28;20044;-50
2023/11/05 03:26:45;;;;;;;0.00;0.00;;;;;;;9.02;80.67;97499.13;15703220;28;20037;-49
2023/11/05 03:34:19;;;;;;;0.00;0.00;;;;;;;8.98;80.84;97490.06;15716372;28;20675;-49
2023/11/05 03:41:54;;;;;;;0.00;0.00;;;;;;;9.13;80.66;97485.38;15695185;28;20068;-53
2023/11/05 03:49:28;;;;;;;0.00;0.00;;;;;;;8.86;81.13;97482.38;15717544;28;20434;-52
2023/11/05 03:57:03;;;;;;;0.00;0.00;;;;;;;9.04;80.44;97487.03;15713329;28;20041;-51
2023/11/05 04:04:36;;;;;;;0.00;0.00;;;;;;;9.08;80.20;97480.06;15705030;28;20032;-54
2023/11/05 04:12:11;;;;;;;0.00;0.00;;;;;;;9.22;79.92;97474.84;15717413;28;20051;-53
2023/11/05 04:19:46;;;;;;;0.32;0.30;;;;;;;9.07;80.74;97491.06;15709498;28;20056;-52
2023/11/05 04:27:22;;;;;;;0.00;0.00;;;;;;;9.07;80.94;97485.69;15725585;28;20048;-53
2023/11/05 04:34:56;;;;;;;0.00;0.00;;;;;;;9.17;80.79;97485.59;15717290;28;20045;-54
2023/11/05 04:42:31;;;;;;;0.00;0.00;;;;;;;9.15;80.47;97493.13;15719199;28;20429;-50
2023/11/05 04:50:05;;;;;;;0.00;0.00;;;;;;;8.90;81.03;97476.19;15705338;28;20437;-51
2023/11/05 04:57:39;;;;;;;0.00;0.00;;;;;;;8.90;81.02;97481.53;15706901;28;20552;-55
2023/11/05 05:05:13;;;;;;;0.08;0.08;;;;;;;8.89;79.59;97434.47;15711891;28;20091;-53
2023/11/05 05:12:48;;;;;;;0.00;0.00;;;;;;;9.21;79.10;97467.91;15716060;28;20049;-55
2023/11/05 05:20:21;;;;;;;0.00;0.00;;;;;;;9.20;78.92;97448.38;15709540;28;20056;-51
2023/11/05 05:27:56;;;;;;;0.00;0.00;;;;;;;8.87;79.53;97463.38;15722126;28;20202;-55
2023/11/05 05:35:30;;;;;;;0.00;0.00;;;;;;;8.90;79.05;97468.16;15718635;28;20049;-52
2023/11/05 05:43:05;;;;;;;0.20;0.10;;;;;;;8.81;79.14;97463.69;15713940;28;20041;-50
2023/11/05 05:50:39;;;;;;;0.00;0.00;;;;;;;9.04;78.35;97468.31;15717499;28;20135;-50
2023/11/05 05:58:16;;;;;;;0.10;0.00;;;;;;;9.18;77.45;97455.88;15709317;28;20523;-53
2023/11/05 06:05:50;;;;;;;0.00;0.00;;;;;;;8.77;78.71;97462.69;15712350;28;20049;-53
2023/11/05 06:13:26;;;;;;;0.00;0.00;;;;;;;8.78;77.96;97449.00;15707607;28;20049;-50
2023/11/05 06:20:59;;;;;;;0.00;0.00;;;;;;;8.83;77.97;97443.63;15698888;28;20140;-52
2023/11/05 06:28:34;;;;;;;0.00;0.00;;;;;;;8.89;77.09;97417.63;15707423;28;20041;-54
2023/11/05 06:36:09;;;;;;;0.00;0.00;;;;;;;9.03;76.31;97431.94;15695731;28;20091;-55
2023/11/05 06:43:43;;;;;;;0.00;0.00;;;;;;;8.97;76.77;97421.59;15729113;28;20060;-54
2023/11/05 06:51:16;;;;;;;0.00;0.00;;;;;;;9.34;75.97;97429.00;15734538;28;20066;-51
2023/11/05 06:58:52;;;;;;;;;;;;;;;9.76;74.91;97430.94;15715026;28;20048;-51
2023/11/05 07:06:27;;;;;;;0.00;0.00;;;;;;;9.74;74.85;97419.69;15729677;28;20338;-50
2023/11/05 07:14:01;;;;;;;1.50;0.73;;;;;;;10.14;73.16;97412.25;15724378;28;20161;-53
2023/11/05 07:21:35;;;;;;;0.00;0.00;;;;;;;10.25;72.60;97413.72;15715456;28;20045;-53
2023/11/05 07:29:13;;;;;;;0.00;0.00;;;;;;;10.40;72.14;97407.38;15717768;28;20050;-51
2023/11/05 07:36:47;;;;;;;0.00;0.00;;;;;;;10.18;72.95;97413.28;15714686;28;20040;-52
2023/11/05 07:44:23;;;;;;;0.00;0.00;;;;;;;9.91;73.06;97412.00;15714108;28;20041;-52
2023/11/05 07:51:56;;;;;;;0.00;0.00;;;;;;;10.06;73.13;97410.19;15721417;28;20059;-54
2023/11/05 07:59:34;;;;;;;0.00;0.00;;;;;;;10.07;72.92;97409.13;15717302;28;20105;-53
2023/11/05 08:07:07;;;;;;;0.00;0.00;;;;;;;10.27;71.70;97408.09;15724631;28;20116;-51
2023/11/05 08:14:44;;;;;;;0.00;0.00;;;;;;;10.47;72.12;97410.47;15714021;28;20045;-51
2023/11/05 08:22:18;;;;;;;0.00;0.00;;;;;;;10.14;73.14;97407.69;15710457;28;20048;-50
2023/11/05 08:29:53;;;;;;;0.00;0.00;;;;;;;10.18;73.85;97418.63;15719868;28;20036;-51
2023/11/05 08:37:27;;;;;;;0.00;0.00;;;;;;;10.05;74.54;97422.00;15705766;28;20032;-49
2023/11/05 08:45:02;;;;;;;0.17;0.17;;;;;;;9.94;75.33;97432.88;15703513;28;20075;-54
2023/11/05 08:52:35;;;;;;;0.00;0.00;;;;;;;9.99;74.79;97439.25;15694209;28;20062;-50
2023/11/05 09:00:12;;;;;;;;;;;;;;;10.08;73.87;97440.22;15704259;28;20110;-52
2023/11/05 09:07:45;;;;;;;0.05;0.05;;;;;;;10.13;73.72;97442.81;15719698;28;19967;-49
2023/11/05 09:15:22;;;;;;;0.00;0.00;;;;;;;10.03;73.52;97434.91;15720225;28;20063;-53
2023/11/05 09:22:55;;;;;;;3.03;0.25;;;;;;;10.50;72.71;97439.38;15711343;28;20040;-58
2023/11/05 09:30:30;;;;;;;0.00;0.00;;;;;;;10.30;72.41;97440.44;15723946;28;20050;-52
2023/11/05 09:38:05;;;;;;;0.00;0.00;;;;;;;10.19;74.33;97453.16;15706144;28;20044;-52
2023/11/05 09:45:40;;;;;;;0.00;0.00;;;;;;;10.33;74.80;97447.13;15706450;28;20455;-54
2023/11/05 09:53:15;;;;;;;0.00;0.00;;;;;;;10.31;74.58;97446.63;15682641;28;20041;-49
2023/11/05 10:00:51;;;;;;;1.58;1.02;;;;;;;10.51;74.91;97443.66;15693196;28;20037;-51
2023/11/05 10:08:25;;;;;;;0.00;0.00;;;;;;;10.22;76.43;97433.84;15722855;28;20095;-52
2023/11/05 10:16:00;;;;;;;0.00;0.00;;;;;;;10.21;77.93;97415.34;15729517;28;20046;-50
2023/11/05 10:23:50;;;;;;;0.00;0.00;;;;;;;10.41;77.19;97433.09;15729070;28;20048;-53
2023/11/05 10:31:27;;;;;;;3.85;0.40;;;;;;;10.62;76.56;97433.56;15719381;28;20127;-52
2023/11/05 10:39:02;;;;;;;0.00;0.00;;;;;;;10.64;77.17;97426.84;15724611;28;20052;-53
2023/11/05 10:46:38;;;;;;;0.00;0.00;;;;;;;10.82;77.23;97427.91;15713046;28;20441;-50
2023/11/05 10:54:11;;;;;;;0.00;0.00;;;;;;;10.93;76.31;97423.16;15717098;28;20091;-51
2023/11/05 11:01:46;;;;;;;0.00;0.00;;;;;;;11.17;76.77;97418.44;15716181;28;20172;-50
2023/11/05 11:09:27;;;;;;;0.00;0.00;;;;;;;11.70;74.29;97420.69;15705182;28;20501;-52
2023/11/05 11:17:19;;;;;;;0.00;0.00;;;;;;;11.76;72.94;97424.06;15712599;28;20219;-52
2023/11/05 11:25:07;;;;;;;0.00;0.00;;;;;;;12.00;71.17;97419.31;15717558;28;20295;-55
2023/11/05 11:32:42;;;;;;;0.00;0.00;;;;;;;12.08;72.28;97423.19;15703211;28;20405;-54
2023/11/05 11:40:17;;;;;;;0.00;0.00;;;;;;;12.36;70.40;97426.63;15703208;28;20177;-53
2023/11/05 11:47:55;;;;;;;0.00;0.00;;;;;;;12.25;70.61;97433.28;15710573;28;20062;-55
2023/11/05 11:55:29;;;;;;;0.00;0.00;;;;;;;12.45;70.01;97437.44;15707227;28;20068;-55
2023/11/05 12:03:04;;;;;;;0.10;0.10;;;;;;;12.60;68.27;97453.25;15696363;28;20057;-52
2023/11/05 12:10:39;;;;;;;0.00;0.00;;;;;;;12.33;69.29;97442.56;15697269;28;20052;-52
2023/11/05 12:18:14;;;;;;;1.08;0.17;;;;;;;13.21;66.38;97457.16;15712054;28;20048;-57
2023/11/05 12:25:53;;;;;;;0.00;0.00;;;;;;;12.86;67.52;97468.78;15706219;28;20425;-56
2023/11/05 12:33:31;;;;;;;0.65;0.47;;;;;;;13.06;66.12;97476.41;15713511;28;20059;-50
2023/11/05 12:41:06;;;;;;;0.00;0.00;;;;;;;12.92;67.79;97460.31;15721596;28;20291;-53
2023/11/05 12:48:41;;;;;;;0.65;0.63;;;;;;;14.00;63.60;97461.84;15685900;28;20052;-53
2023/11/05 12:56:16;;;;;;;0.00;0.00;;;;;;;14.32;61.64;97462.56;15698262;28;20102;-52
2023/11/05 13:03:51;;;;;;;0.00;0.00;;;;;;;13.78;62.70;97446.53;15696279;22;20075;-52
2023/11/05 13:11:24;;;;;;;0.00;0.00;;;;;;;13.88;62.99;97477.00;15671542;28;20047;-50
2023/11/05 13:19:00;;;;;;;0.00;0.00;;;;;;;13.55;63.95;97479.25;15684310;28;20036;-48
2023/11/05 13:26:33;;;;;;;0.00;0.00;;;;;;;13.74;63.25;97490.59;15684860;28;20040;-50
2023/11/05 13:34:08;;;;;;;0.40;0.40;;;;;;;13.83;63.37;97496.81;15678406;28;20132;-53
2023/11/05 13:41:41;;;;;;;0.00;0.00;;;;;;;13.73;63.88;97499.78;15676080;28;20151;-55
2023/11/05 13:49:16;;;;;;;0.00;0.00;;;;;;;13.73;63.78;97514.06;15692409;28;20041;-51
2023/11/05 13:56:50;;;;;;;0.00;0.00;;;;;;;13.62;64.37;97511.94;15668794;28;20402;-57
2023/11/05 14:04:25;;;;;;;1.02;0.75;;;;;;;13.12;65.51;97520.16;15667584;28;20071;-55
2023/11/05 14:12:02;;;;;;;0.00;0.00;;;;;;;13.13;65.09;97535.19;15660644;28;20528;-53
2023/11/05 14:19:36;;;;;;;0.43;0.43;;;;;;;12.80;66.02;97537.31;15653073;28;20091;-50
2023/11/05 14:27:10;;;;;;;0.00;0.00;;;;;;;13.01;65.32;97555.41;15663448;28;20049;-52
2023/11/05 14:34:44;;;;;;;0.00;0.00;;;;;;;12.84;66.07;97567.91;15655781;28;20047;-54
2023/11/05 14:42:17;;;;;;;0.00;0.00;;;;;;;12.85;66.52;97570.28;15654081;28;20417;-54
2023/11/05 14:49:52;;;;;;;0.05;0.05;;;;;;;13.04;66.05;97586.28;15660052;28;20050;-52
2023/11/05 14:57:26;;;;;;;0.00;0.00;;;;;;;12.93;67.53;97603.78;15681183;28;20041;-53
2023/11/05 15:05:00;;;;;;;0.00;0.00;;;;;;;12.47;70.02;97605.50;15685794;28;20059;-50
2023/11/05 15:12:34;;;;;;;0.00;0.00;;;;;;;12.76;69.16;97613.25;15693475;28;20047;-55
2023/11/05 15:20:10;;;;;;;0.00;0.00;;;;;;;12.48;70.18;97630.50;15689297;28;20033;-54
2023/11/05 15:27:44;;;;;;;0.00;0.00;;;;;;;12.12;71.20;97643.81;15679926;28;20098;-51
2023/11/05 15:35:21;;;;;;;0.00;0.00;;;;;;;12.47;70.33;97640.47;15673470;28;20477;-55
2023/11/05 15:42:57;;;;;;;2.17;1.63;;;;;;;12.28;70.84;97652.44;15681838;28;20112;-50
2023/11/05 15:50:33;;;;;;;0.00;0.00;;;;;;;12.08;71.35;97667.81;15678566;28;20052;-52
2023/11/05 15:58:07;;;;;;;32.22;0.90;;;;;;;12.07;71.17;97673.47;15664172;28;20037;-54
2023/11/05 16:05:42;;;;;;;0.00;0.00;;;;;;;12.01;71.92;97686.22;15669444;28;20103;-57
2023/11/05 16:13:16;;;;;;;0.00;0.00;;;;;;;12.03;71.89;97702.88;15675885;28;20555;-55
2023/11/05 16:20:51;;;;;;;0.00;0.00;;;;;;;12.04;71.21;97715.22;15676761;28;20183;-55
2023/11/05 16:28:25;;;;;;;0.00;0.00;;;;;;;12.22;70.06;97730.50;15677821;28;20041;-55
2023/11/05 16:36:01;;;;;;;0.00;0.00;;;;;;;12.27;69.90;97735.00;15679807;28;20053;-54
2023/11/05 16:43:34;;;;;;;0.10;0.10;;;;;;;12.20;69.48;97751.50;15679023;28;20072;-54
2023/11/05 16:51:09;;;;;;;;;;;;;;;12.57;68.43;97760.56;15678098;28;20079;-52
2023/11/05 16:58:44;;;;;;;0.08;0.08;;;;;;;11.84;70.53;97774.63;15677586;28;19966;-54
2023/11/05 17:06:19;;;;;;;;;;;;;;;12.06;70.45;97788.28;15688076;28;20398;-51
2023/11/05 17:13:53;;;;;;;0.45;0.15;;;;;;;12.24;69.09;97792.03;15652520;28;19925;-53
2023/11/05 17:21:27;;;;;;;2.88;1.95;;;;;;;12.35;68.49;97811.50;15671427;28;20041;-54
2023/11/05 17:29:01;;;;;;;0.00;0.00;;;;;;;12.47;68.48;97825.31;15676975;28;20084;-51
2023/11/05 17:36:36;;;;;;;0.20;0.20;;;;;;;12.36;69.37;97838.13;15656353;28;20037;-54
2023/11/05 17:44:12;;;;;;;0.00;0.00;;;;;;;12.17;70.15;97859.66;15675582;28;20073;-53
2023/11/05 17:51:46;;;;;;;;;;;;;;;12.32;70.88;97879.34;15662033;28;20053;-52
2023/11/05 17:59:20;;;;;;;0.00;0.00;;;;;;;11.84;75.00;97888.31;15669001;28;20288;-55
2023/11/05 18:06:54;;;;;;;0.00;0.00;;;;;;;11.75;75.53;97903.47;15669984;28;20053;-50
2023/11/05 18:14:28;;;;;;;0.00;0.00;;;;;;;11.72;76.80;97918.25;15669782;28;20195;-51
2023/11/05 18:22:04;;;;;;;0.05;0.05;;;;;;;11.18;79.95;97929.31;15670939;28;20056;-55
2023/11/05 18:29:37;;;;;;;0.00;0.00;;;;;;;11.39;79.86;97944.16;15671261;28;20028;-52
2023/11/05 18:37:12;;;;;;;0.00;0.00;;;;;;;10.98;81.10;97962.50;15673930;28;20503;-53
2023/11/05 18:44:45;;;;;;;0.03;0.03;;;;;;;11.02;81.90;97978.84;15664485;28;20568;-51
2023/11/05 18:52:20;;;;;;;0.00;0.00;;;;;;;10.94;82.59;97977.56;15690118;28;20041;-53
2023/11/05 18:59:53;;;;;;;0.00;0.00;;;;;;;11.21;81.24;97980.56;15677612;28;20052;-54
2023/11/05 19:07:27;;;;;;;0.00;0.00;;;;;;;11.60;78.32;97993.06;15680670;28;20047;-50
2023/11/05 19:15:00;;;;;;;0.00;0.00;;;;;;;12.39;75.77;98008.88;15679217;28;20044;-56
2023/11/05 19:22:35;;;;;;;;;;;;;;;11.52;78.25;98020.59;15674467;28;20045;-52
2023/11/05 19:30:11;;;;;;;0.00;0.00;;;;;;;11.73;76.74;98050.72;15677595;28;19936;-51
2023/11/05 19:37:46;;;;;;;0.10;0.10;;;;;;;11.53;78.12;98081.28;15663564;28;20041;-52
2023/11/05 19:45:21;;;;;;;0.00;0.00;;;;;;;11.95;76.13;98093.28;15687182;28;20041;-53
2023/11/05 19:52:55;;;;;;;0.17;0.17;;;;;;;11.88;77.11;98114.31;15678295;28;20071;-50
2023/11/05 20:00:29;;;;;;;0.68;0.57;;;;;;;11.48;78.03;98133.16;15676830;28;20052;-54
2023/11/05 20:08:05;;;;;;;0.00;0.00;;;;;;;10.48;81.36;98144.13;15657518;28;20125;-53
2023/11/05 20:15:38;;;;;;;0.05;0.05;;;;;;;10.51;81.14;98169.63;15676054;28;20109;-50
2023/11/05 20:23:13;;;;;;;0.00;0.00;;;;;;;10.37;82.25;98188.94;15672889;28;20077;-54
2023/11/05 20:30:46;;;;;;;0.00;0.00;;;;;;;10.20;82.36;98201.81;15674692;28;20470;-52
2023/11/05 20:38:21;;;;;;;0.17;0.17;;;;;;;10.24;82.11;98216.31;15670573;28;20189;-55
2023/11/05 20:45:54;;;;;;;0.00;0.00;;;;;;;10.07;82.90;98235.34;15676615;28;20119;-54
2023/11/05 20:53:29;;;;;;;0.00;0.00;;;;;;;10.32;82.48;98253.31;15655624;28;20159;-55
2023/11/05 21:01:02;;;;;;;0.00;0.00;;;;;;;10.31;82.76;98267.78;15672879;28;20087;-50
2023/11/05 21:08:37;;;;;;;0.20;0.20;;;;;;;10.43;82.53;98289.75;15656274;28;20041;-51
2023/11/05 21:16:10;;;;;;;0.03;0.03;;;;;;;10.21;82.99;98294.56;15673083;28;20079;-50
2023/11/05 21:23:45;;;;;;;0.00;0.00;;;;;;;10.14;83.60;98307.44;15673404;28;20055;-48
2023/11/05 21:31:19;;;;;;;0.10;0.10;;;;;;;10.26;82.86;98328.63;15671849;28;20065;-51
2023/11/05 21:38:53;;;;;;;0.13;0.13;;;;;;;10.45;82.36;98346.63;15653679;28;20051;-50
2023/11/05 21:46:29;;;;;;;0.17;0.13;;;;;;;10.27;82.42;98362.44;15668594;28;20095;-49
2023/11/05 21:54:03;;;;;;;;;;;;;;;10.33;81.74;98382.81;15653941;28;20091;-51
2023/11/05 22:01:37;;;;;;;8.25;0.45;;;;;;;10.22;81.83;98395.38;15677285;28;20301;-50
2023/11/05 22:09:12;;;;;;;0.00;0.00;;;;;;;10.09;82.25;98417.31;15683021;28;20041;-50
2023/11/05 22:16:45;;;;;;;0.00;0.00;;;;;;;10.32;80.58;98434.84;15681334;28;20073;-50
2023/11/05 22:24:20;;;;;;;0.00;0.00;;;;;;;10.22;80.22;98432.91;15663383;28;20045;-50
2023/11/05 22:31:53;;;;;;;0.05;0.05;;;;;;;10.33;78.47;98455.22;15688188;28;20118;-51
2023/11/05 22:39:28;;;;;;;0.00;0.00;;;;;;;10.16;78.72;98476.84;15673691;28;20037;-55
2023/11/05 22:47:01;;;;;;;0.00;0.00;;;;;;;10.11;78.64;98491.03;15680954;28;20620;-49
2023/11/05 22:54:37;;;;;;;0.00;0.00;;;;;;;9.89;80.07;98515.34;15680607;28;20132;-49
2023/11/05 23:02:10;;;;;;;0.00;0.00;;;;;;;10.23;78.87;98525.66;15666757;28;20072;-53
2023/11/05 23:09:45;;;;;;;0.00;0.00;;;;;;;10.43;76.85;98541.84;15662409;28;20187;-51
2023/11/05 23:17:20;;;;;;;0.10;0.00;;;;;;;10.41;77.29;98545.88;15679618;28;20033;-51
2023/11/05 23:24:54;;;;;;;0.00;0.00;;;;;;;10.38;75.33;98565.16;15678689;28;20056;-52
2023/11/05 23:32:28;;;;;;;0.00;0.00;;;;;;;10.38;75.63;98578.56;15656895;28;20460;-49
2023/11/05 23:40:07;;;;;;;0.00;0.00;;;;;;;10.58;75.26;98573.28;15677656;28;20107;-51
2023/11/05 23:47:40;;;;;;;0.05;0.05;;;;;;;10.45;74.63;98589.88;15679633;28;20045;-53
2023/11/05 23:55:19;;;;;;;0.00;0.00;;;;;;;10.36;73.97;98597.63;15677788;28;20071;-54
